createdAt,value
2022-08-31T00:02:42.873Z,8.63
2022-08-31T00:05:10.642Z,9.53
2022-08-31T00:07:38.021Z,8.97
2022-08-31T00:10:14.774Z,9.10
2022-08-31T00:12:47.269Z,9.43
2022-08-31T00:15:17.831Z,9.30
2022-08-31T00:17:45.306Z,10.10
2022-08-31T00:20:32.621Z,7.97
2022-08-31T00:23:01.701Z,8.97
2022-08-31T00:25:28.439Z,9.90
2022-08-31T00:27:55.816Z,9.30
2022-08-31T00:30:23.504Z,9.40
2022-08-31T00:32:50.324Z,8.83
2022-08-31T00:35:17.357Z,9.13
2022-08-31T00:37:44.192Z,9.13
2022-08-31T00:40:12.176Z,10.37
2022-08-31T00:42:38.929Z,9.47
2022-08-31T00:45:06.867Z,9.50
2022-08-31T00:47:33.673Z,9.50
2022-08-31T00:50:02.175Z,10.43
2022-08-31T00:52:37.714Z,10.10
2022-08-31T00:55:17.005Z,9.43
2022-08-31T00:57:47.969Z,9.67
2022-08-31T01:00:19.822Z,10.20
2022-08-31T01:02:47.322Z,9.50
2022-08-31T01:05:14.827Z,10.00
2022-08-31T01:07:42.174Z,9.30
2022-08-31T01:10:10.221Z,9.43
2022-08-31T01:12:37.353Z,10.03
2022-08-31T01:15:07.277Z,8.20
2022-08-31T01:17:35.399Z,8.53
2022-08-31T01:20:20.707Z,9.63
2022-08-31T01:23:05.283Z,9.80
2022-08-31T01:25:33.773Z,10.20
2022-08-31T01:28:04.501Z,10.40
2022-08-31T01:30:31.651Z,9.70
2022-08-31T01:32:58.456Z,9.97
2022-08-31T01:35:26.085Z,10.33
2022-08-31T01:37:53.809Z,9.27
2022-08-31T01:40:20.735Z,10.07
2022-08-31T01:42:47.551Z,9.97
2022-08-31T01:45:14.275Z,10.90
2022-08-31T01:47:41.525Z,10.07
2022-08-31T01:50:09.413Z,8.90
2022-08-31T01:52:39.087Z,9.80
2022-08-31T01:55:07.384Z,7.97
2022-08-31T01:57:34.757Z,10.07
2022-08-31T02:00:08.789Z,10.03
2022-08-31T02:02:35.750Z,9.63
2022-08-31T02:05:02.524Z,8.97
2022-08-31T02:07:29.223Z,8.53
2022-08-31T02:09:55.926Z,10.00
2022-08-31T02:12:22.616Z,9.07
2022-08-31T02:14:49.309Z,15.67
2022-08-31T02:17:16.325Z,10.20
2022-08-31T02:19:43.044Z,8.70
2022-08-31T02:22:09.794Z,8.97
2022-08-31T02:24:36.595Z,9.30
2022-08-31T02:27:03.510Z,9.50
2022-08-31T02:29:30.290Z,10.23
2022-08-31T02:31:58.548Z,9.43
2022-08-31T02:34:25.451Z,9.03
2022-08-31T02:36:52.136Z,10.50
2022-08-31T02:39:18.801Z,9.97
2022-08-31T02:41:45.662Z,9.10
2022-08-31T02:44:12.574Z,9.97
2022-08-31T02:46:39.353Z,10.80
2022-08-31T02:49:06.127Z,9.63
2022-08-31T02:51:32.773Z,9.10
2022-08-31T02:53:59.646Z,9.93
2022-08-31T02:56:26.369Z,9.57
2022-08-31T02:58:55.065Z,9.30
2022-08-31T03:01:23.873Z,9.67
2022-08-31T03:03:51.101Z,10.60
2022-08-31T03:06:19.399Z,8.97
2022-08-31T03:08:47.514Z,8.13
2022-08-31T03:11:15.075Z,9.00
2022-08-31T03:13:42.947Z,8.10
2022-08-31T03:16:12.245Z,8.53
2022-08-31T03:18:38.966Z,9.90
2022-08-31T03:21:05.798Z,10.07
2022-08-31T03:23:32.480Z,9.83
2022-08-31T03:25:59.991Z,10.10
2022-08-31T03:28:26.698Z,10.20
2022-08-31T03:30:53.444Z,9.93
2022-08-31T03:33:20.356Z,9.10
2022-08-31T03:35:47.139Z,9.87
2022-08-31T03:38:15.903Z,10.63
2022-08-31T03:40:44.290Z,9.70
2022-08-31T03:43:11.890Z,9.40
2022-08-31T03:45:40.249Z,10.90
2022-08-31T03:48:11.931Z,10.20
2022-08-31T03:50:40.745Z,9.07
2022-08-31T03:53:08.595Z,10.00
2022-08-31T03:55:39.068Z,8.73
2022-08-31T03:58:07.129Z,9.30
2022-08-31T04:00:35.395Z,9.07
2022-08-31T04:03:02.316Z,10.67
2022-08-31T04:05:30.749Z,10.10
2022-08-31T04:07:57.700Z,9.70
2022-08-31T04:10:24.586Z,9.30
2022-08-31T04:12:51.888Z,9.60
2022-08-31T04:15:19.022Z,9.80
2022-08-31T04:17:46.396Z,9.83
2022-08-31T04:20:13.473Z,9.60
2022-08-31T04:22:40.140Z,9.30
2022-08-31T04:25:07.398Z,10.60
2022-08-31T04:27:34.051Z,9.87
2022-08-31T04:30:02.000Z,9.37
2022-08-31T04:32:29.733Z,10.00
2022-08-31T04:34:56.773Z,9.23
2022-08-31T04:37:23.587Z,9.90
2022-08-31T04:39:52.214Z,10.80
2022-08-31T04:42:19.514Z,9.87
2022-08-31T04:44:46.369Z,10.00
2022-08-31T04:47:13.045Z,10.33
2022-08-31T04:49:40.594Z,10.80
2022-08-31T04:52:08.256Z,10.03
2022-08-31T04:54:35.247Z,10.57
2022-08-31T04:57:02.176Z,10.10
2022-08-31T04:59:28.901Z,9.67
2022-08-31T05:01:55.818Z,9.90
2022-08-31T05:04:26.083Z,8.90
2022-08-31T05:06:52.887Z,9.63
2022-08-31T05:09:22.735Z,10.57
2022-08-31T05:11:51.700Z,9.67
2022-08-31T05:14:18.777Z,9.97
2022-08-31T05:16:46.049Z,9.57
2022-08-31T05:19:13.194Z,9.10
2022-08-31T05:21:42.054Z,10.50
2022-08-31T05:24:12.330Z,10.50
2022-08-31T05:26:44.499Z,9.67
2022-08-31T05:29:14.418Z,9.70
2022-08-31T05:31:43.351Z,10.77
2022-08-31T05:34:12.593Z,10.30
2022-08-31T05:36:40.490Z,10.17
2022-08-31T05:39:11.847Z,8.80
2022-08-31T05:41:43.935Z,9.93
2022-08-31T05:44:11.631Z,11.00
2022-08-31T05:46:38.952Z,11.60
2022-08-31T05:49:07.208Z,9.73
2022-08-31T05:51:38.355Z,9.83
2022-08-31T05:54:06.369Z,10.30
2022-08-31T05:56:34.524Z,11.17
2022-08-31T05:59:01.254Z,10.80
2022-08-31T06:01:30.782Z,10.97
2022-08-31T06:03:58.590Z,10.43
2022-08-31T06:06:26.513Z,10.17
2022-08-31T06:08:54.016Z,10.13
2022-08-31T06:11:24.727Z,10.90
2022-08-31T06:13:53.520Z,10.70
2022-08-31T06:16:21.360Z,11.27
2022-08-31T06:18:51.676Z,10.97
2022-08-31T06:21:21.537Z,11.27
2022-08-31T06:23:50.709Z,10.90
2022-08-31T06:26:19.823Z,11.70
2022-08-31T06:28:49.063Z,10.10
2022-08-31T06:31:23.738Z,12.23
2022-08-31T06:33:51.940Z,10.50
2022-08-31T06:36:21.129Z,10.73
2022-08-31T06:38:48.035Z,8.90
2022-08-31T06:41:27.147Z,10.37
2022-08-31T06:43:55.132Z,10.03
2022-08-31T06:46:23.330Z,9.67
2022-08-31T06:48:53.137Z,9.77
2022-08-31T06:51:19.819Z,9.87
2022-08-31T06:53:46.785Z,9.20
2022-08-31T06:56:22.707Z,9.73
2022-08-31T06:58:53.686Z,10.13
2022-08-31T07:01:35.161Z,9.73
2022-08-31T07:04:05.461Z,9.10
2022-08-31T07:06:36.334Z,9.50
2022-08-31T07:09:06.386Z,9.97
2022-08-31T07:11:45.006Z,9.00
2022-08-31T07:14:14.701Z,10.90
2022-08-31T07:16:43.044Z,9.97
2022-08-31T07:19:11.667Z,10.10
2022-08-31T07:21:43.148Z,9.53
2022-08-31T07:24:11.924Z,9.80
2022-08-31T07:26:47.151Z,9.30
2022-08-31T07:29:16.164Z,9.30
2022-08-31T07:31:46.550Z,9.50
2022-08-31T07:34:28.767Z,9.30
2022-08-31T07:37:16.921Z,9.03
2022-08-31T07:40:07.075Z,8.47
2022-08-31T07:42:40.575Z,8.63
2022-08-31T07:45:12.781Z,9.10
2022-08-31T07:47:45.272Z,8.17
2022-08-31T07:50:13.164Z,9.27
2022-08-31T07:52:48.436Z,9.10
2022-08-31T07:55:17.758Z,6.30
2022-08-31T07:57:44.889Z,8.37
2022-08-31T08:00:15.293Z,8.40
2022-08-31T08:02:46.245Z,8.60
2022-08-31T08:05:22.800Z,8.33
2022-08-31T08:08:08.410Z,6.23
2022-08-31T08:10:43.537Z,7.40
2022-08-31T08:13:12.507Z,6.60
2022-08-31T08:15:40.652Z,8.20
2022-08-31T08:18:07.670Z,7.93
2022-08-31T08:20:38.056Z,8.27
2022-08-31T08:23:18.503Z,7.60
2022-08-31T08:25:55.886Z,9.07
2022-08-31T08:28:43.118Z,9.23
2022-08-31T08:31:16.651Z,6.60
2022-08-31T08:33:44.396Z,9.20
2022-08-31T08:36:11.700Z,8.63
2022-08-31T08:38:43.584Z,9.50
2022-08-31T08:41:25.139Z,7.87
2022-08-31T08:43:58.644Z,7.00
2022-08-31T08:47:38.618Z,8.37
2022-08-31T08:49:53.981Z,8.80
2022-08-31T08:52:30.610Z,8.90
2022-08-31T08:55:03.686Z,7.40
2022-08-31T08:57:34.511Z,9.30
2022-08-31T09:00:24.890Z,8.13
2022-08-31T09:03:11.472Z,8.60
2022-08-31T09:06:07.087Z,9.60
2022-08-31T09:08:56.187Z,9.47
2022-08-31T09:11:35.587Z,7.63
2022-08-31T09:14:38.719Z,7.73
2022-08-31T09:17:33.625Z,6.23
2022-08-31T09:20:01.526Z,7.90
2022-08-31T09:22:33.691Z,8.77
2022-08-31T09:25:00.507Z,8.10
2022-08-31T09:27:46.830Z,6.70
2022-08-31T09:30:33.130Z,8.63
2022-08-31T09:33:00.286Z,8.13
2022-08-31T09:35:41.240Z,8.73
2022-08-31T09:38:25.426Z,8.10
2022-08-31T09:40:53.130Z,8.30
2022-08-31T09:43:37.510Z,8.13
2022-08-31T09:46:31.597Z,8.27
2022-08-31T09:49:02.996Z,7.47
2022-08-31T09:51:33.792Z,7.90
2022-08-31T09:54:34.093Z,8.17
2022-08-31T09:57:03.073Z,7.50
2022-08-31T09:59:48.299Z,7.30
2022-08-31T10:02:22.129Z,7.33
2022-08-31T10:05:26.817Z,6.63
2022-08-31T10:08:04.278Z,7.67
2022-08-31T10:10:35.785Z,6.60
2022-08-31T10:13:14.804Z,7.87
2022-08-31T10:15:52.927Z,6.60
2022-08-31T10:18:26.247Z,7.80
2022-08-31T10:20:59.592Z,7.57
2022-08-31T10:23:54.549Z,8.00
2022-08-31T10:26:31.589Z,8.23
2022-08-31T10:29:02.015Z,6.87
2022-08-31T10:31:36.885Z,8.00
2022-08-31T10:34:31.094Z,7.00
2022-08-31T10:37:12.549Z,7.00
2022-08-31T10:39:47.806Z,7.67
2022-08-31T10:42:30.702Z,7.07
2022-08-31T10:45:09.197Z,7.37
2022-08-31T10:47:41.516Z,7.37
2022-08-31T10:50:10.951Z,9.10
2022-08-31T10:53:15.447Z,7.90
2022-08-31T10:55:46.535Z,7.23
2022-08-31T10:58:46.179Z,7.50
2022-08-31T11:01:48.508Z,8.10
2022-08-31T11:04:25.932Z,7.40
2022-08-31T11:07:08.021Z,7.23
2022-08-31T11:09:49.669Z,7.10
2022-08-31T11:12:21.643Z,5.80
2022-08-31T11:14:48.453Z,5.80
2022-08-31T11:17:41.267Z,6.23
2022-08-31T11:20:43.150Z,5.80
2022-08-31T11:23:32.271Z,6.03
2022-08-31T11:26:31.904Z,5.73
2022-08-31T11:29:28.859Z,6.27
2022-08-31T11:32:03.552Z,5.23
2022-08-31T11:34:42.471Z,5.83
2022-08-31T11:37:09.774Z,6.53
2022-08-31T11:39:40.224Z,5.53
2022-08-31T11:42:18.931Z,6.60
2022-08-31T11:44:59.887Z,6.20
2022-08-31T11:47:29.984Z,5.50
2022-08-31T11:50:02.342Z,8.10
2022-08-31T11:52:45.174Z,7.77
2022-08-31T11:55:51.927Z,5.67
2022-08-31T11:58:25.968Z,7.63
2022-08-31T12:01:09.465Z,7.20
2022-08-31T12:03:44.127Z,7.10
2022-08-31T12:06:35.487Z,7.40
2022-08-31T12:09:02.110Z,6.30
2022-08-31T12:11:47.616Z,7.50
2022-08-31T12:14:14.500Z,6.50
2022-08-31T12:17:02.950Z,6.63
2022-08-31T12:20:02.127Z,5.60
2022-08-31T12:23:30.436Z,6.50
2022-08-31T12:26:34.954Z,5.00
2022-08-31T12:29:16.648Z,6.97
2022-08-31T12:32:00.031Z,7.23
2022-08-31T12:34:28.147Z,8.10
2022-08-31T12:36:54.863Z,7.83
2022-08-31T12:39:28.690Z,6.70
2022-08-31T12:42:03.621Z,6.47
2022-08-31T12:44:49.987Z,7.47
2022-08-31T12:47:24.267Z,6.27
2022-08-31T12:50:17.820Z,7.47
2022-08-31T12:53:22.163Z,7.17
2022-08-31T12:56:01.131Z,8.00
2022-08-31T12:59:09.641Z,8.67
2022-08-31T13:01:42.235Z,7.53
2022-08-31T13:04:10.672Z,9.30
2022-08-31T13:06:40.746Z,9.10
2022-08-31T13:09:07.821Z,10.47
2022-08-31T13:11:41.781Z,8.97
2022-08-31T13:14:24.577Z,9.47
2022-08-31T13:17:03.946Z,9.40
2022-08-31T13:19:34.195Z,9.37
2022-08-31T13:22:07.924Z,8.97
2022-08-31T13:24:41.061Z,8.90
2022-08-31T13:27:17.777Z,8.90
2022-08-31T13:29:45.963Z,8.80
2022-08-31T13:32:23.491Z,8.30
2022-08-31T13:34:50.204Z,8.73
2022-08-31T13:37:28.386Z,8.80
2022-08-31T13:39:55.979Z,7.03
2022-08-31T13:42:41.858Z,8.47
2022-08-31T13:45:39.220Z,8.07
2022-08-31T13:48:18.851Z,8.43
2022-08-31T13:50:53.177Z,7.37
2022-08-31T13:53:42.249Z,7.77
2022-08-31T13:56:46.718Z,9.20
2022-08-31T13:59:24.167Z,8.77
2022-08-31T14:01:52.184Z,9.30
2022-08-31T14:04:50.376Z,8.30
2022-08-31T14:07:25.481Z,6.67
2022-08-31T14:10:01.919Z,8.83
2022-08-31T14:12:36.215Z,7.60
2022-08-31T14:15:17.510Z,7.57
2022-08-31T14:20:49.638Z,8.60
2022-08-31T14:23:29.817Z,9.10
2022-08-31T14:26:02.431Z,8.77
2022-08-31T14:28:43.112Z,8.30
2022-08-31T14:31:24.237Z,8.33
2022-08-31T14:34:03.743Z,8.40
2022-08-31T14:36:35.442Z,7.80
2022-08-31T14:39:02.139Z,8.03
2022-08-31T14:41:32.686Z,8.30
2022-08-31T14:44:09.231Z,7.37
2022-08-31T14:46:41.873Z,8.20
2022-08-31T14:49:10.727Z,9.07
2022-08-31T14:51:39.069Z,7.53
2022-08-31T14:54:08.929Z,9.30
2022-08-31T14:56:46.717Z,7.40
2022-08-31T14:59:16.173Z,9.17
2022-08-31T15:01:44.852Z,7.80
2022-08-31T15:04:17.829Z,8.43
2022-08-31T15:06:50.037Z,9.60
2022-08-31T15:09:16.789Z,9.13
2022-08-31T15:11:44.193Z,9.53
2022-08-31T15:14:14.040Z,8.40
2022-08-31T15:16:43.620Z,8.77
2022-08-31T15:19:14.629Z,9.13
2022-08-31T15:21:52.185Z,9.97
2022-08-31T15:24:24.591Z,9.33
2022-08-31T15:26:54.128Z,8.03
2022-08-31T15:29:24.753Z,8.57
2022-08-31T15:31:54.897Z,7.97
2022-08-31T15:34:26.262Z,7.13
2022-08-31T15:37:02.056Z,7.90
2022-08-31T15:39:48.772Z,6.90
2022-08-31T15:42:20.719Z,6.53
2022-08-31T15:44:55.920Z,7.87
2022-08-31T15:47:48.071Z,7.30
2022-08-31T15:50:19.349Z,8.20
2022-08-31T15:52:51.744Z,7.70
2022-08-31T15:55:23.590Z,6.10
2022-08-31T15:57:54.362Z,7.07
2022-08-31T16:00:26.505Z,7.10
2022-08-31T16:02:57.303Z,6.53
2022-08-31T16:05:30.535Z,7.00
2022-08-31T16:07:58.010Z,5.80
2022-08-31T16:10:27.710Z,6.73
2022-08-31T16:12:54.463Z,6.03
2022-08-31T16:15:24.658Z,5.90
2022-08-31T16:17:51.960Z,6.50
2022-08-31T16:20:18.818Z,6.43
2022-08-31T16:22:45.570Z,7.17
2022-08-31T16:25:14.349Z,6.30
2022-08-31T16:27:43.413Z,5.73
2022-08-31T16:30:12.642Z,5.73
2022-08-31T16:32:39.619Z,6.30
2022-08-31T16:35:06.896Z,4.77
2022-08-31T16:37:35.253Z,6.50
2022-08-31T16:40:02.224Z,5.50
2022-08-31T16:42:29.086Z,6.00
2022-08-31T16:45:01.288Z,5.27
2022-08-31T16:47:29.534Z,5.07
2022-08-31T16:49:56.852Z,7.23
2022-08-31T16:52:26.748Z,6.30
2022-08-31T16:54:56.944Z,6.30
2022-08-31T16:57:27.185Z,6.37
2022-08-31T16:59:58.815Z,7.60
2022-08-31T17:02:26.364Z,7.20
2022-08-31T17:04:54.309Z,8.63
2022-08-31T17:07:24.197Z,7.40
2022-08-31T17:09:56.073Z,5.90
2022-08-31T17:12:26.194Z,5.20
2022-08-31T17:14:53.524Z,7.53
2022-08-31T17:17:23.039Z,6.73
2022-08-31T17:19:52.121Z,7.50
2022-08-31T17:22:25.621Z,7.00
2022-08-31T17:24:57.695Z,6.83
2022-08-31T17:27:26.110Z,7.07
2022-08-31T17:29:56.322Z,6.70
2022-08-31T17:32:27.638Z,6.47
2022-08-31T17:34:55.370Z,5.90
2022-08-31T17:37:32.735Z,6.67
2022-08-31T17:40:00.448Z,5.80
2022-08-31T17:42:28.641Z,6.30
2022-08-31T17:44:56.732Z,5.83
2022-08-31T17:47:24.918Z,5.70
2022-08-31T17:49:52.670Z,6.07
2022-08-31T17:52:21.821Z,5.30
2022-08-31T17:54:51.159Z,6.00
2022-08-31T17:57:22.324Z,6.53
2022-08-31T17:59:49.333Z,6.03
2022-08-31T18:02:32.578Z,7.20
2022-08-31T18:05:00.494Z,6.20
2022-08-31T18:07:27.946Z,5.63
2022-08-31T18:09:54.732Z,6.00
2022-08-31T18:12:22.828Z,6.20
2022-08-31T18:14:50.090Z,6.57
2022-08-31T18:17:17.263Z,7.20
2022-08-31T18:19:45.194Z,7.27
2022-08-31T18:22:14.455Z,5.50
2022-08-31T18:24:42.609Z,7.60
2022-08-31T18:27:11.112Z,8.07
2022-08-31T18:29:38.989Z,6.93
2022-08-31T18:32:07.633Z,8.03
2022-08-31T18:34:37.184Z,6.37
2022-08-31T18:37:04.950Z,5.90
2022-08-31T18:39:52.710Z,6.33
2022-08-31T18:42:40.005Z,8.20
2022-08-31T18:45:19.145Z,8.50
2022-08-31T18:48:23.807Z,6.30
2022-08-31T18:50:44.419Z,7.97
2022-08-31T18:53:15.505Z,7.80
2022-08-31T18:55:43.878Z,7.50
2022-08-31T18:58:10.942Z,8.37
2022-08-31T19:00:40.386Z,8.40
2022-08-31T19:03:07.988Z,8.33
2022-08-31T19:05:39.176Z,9.07
2022-08-31T19:08:06.233Z,9.53
2022-08-31T19:10:35.002Z,10.40
2022-08-31T19:13:05.405Z,8.90
2022-08-31T19:15:38.760Z,9.47
2022-08-31T19:18:06.064Z,10.23
2022-08-31T19:20:35.290Z,9.10
2022-08-31T19:23:02.325Z,9.37
2022-08-31T19:25:29.555Z,10.33
2022-08-31T19:27:56.666Z,10.17
2022-08-31T19:30:28.121Z,10.50
2022-08-31T19:32:56.884Z,10.97
2022-08-31T19:35:27.318Z,10.60
2022-08-31T19:37:56.884Z,11.03
2022-08-31T19:40:43.328Z,10.77
2022-08-31T19:46:16.019Z,11.83
2022-08-31T19:48:44.681Z,12.60
2022-08-31T19:51:14.363Z,12.03
2022-08-31T19:53:44.499Z,11.80
2022-08-31T19:56:17.700Z,9.60
2022-08-31T19:58:48.882Z,12.73
2022-08-31T20:01:18.260Z,12.70
2022-08-31T20:03:48.013Z,10.47
2022-08-31T20:06:19.481Z,12.13
2022-08-31T20:08:48.136Z,12.47
2022-08-31T20:11:21.456Z,12.13
2022-08-31T20:13:49.495Z,10.97
2022-08-31T20:16:17.121Z,12.20
2022-08-31T20:18:46.466Z,12.40
2022-08-31T20:21:17.418Z,12.17
2022-08-31T20:23:45.789Z,11.70
2022-08-31T20:26:12.649Z,11.13
2022-08-31T20:28:39.634Z,11.67
2022-08-31T20:31:09.375Z,11.00
2022-08-31T20:33:37.229Z,10.77
2022-08-31T20:36:23.341Z,9.63
2022-08-31T20:38:57.161Z,9.20
2022-08-31T20:41:26.080Z,9.87
2022-08-31T20:43:52.866Z,9.57
2022-08-31T20:46:38.634Z,8.60
2022-08-31T20:49:23.798Z,9.47
2022-08-31T20:51:52.136Z,8.93
2022-08-31T20:54:18.829Z,11.77
2022-08-31T20:56:46.234Z,9.63
2022-08-31T20:59:13.291Z,11.97
2022-08-31T21:01:41.010Z,9.60
2022-08-31T21:04:08.370Z,10.70
2022-08-31T21:06:37.035Z,11.70
2022-08-31T21:09:03.937Z,11.30
2022-08-31T21:11:30.690Z,11.97
2022-08-31T21:13:57.535Z,12.40
2022-08-31T21:16:26.050Z,11.63
2022-08-31T21:18:52.797Z,11.40
2022-08-31T21:21:19.466Z,12.10
2022-08-31T21:23:47.948Z,12.83
2022-08-31T21:26:21.436Z,11.50
2022-08-31T21:28:53.228Z,11.13
2022-08-31T21:31:28.535Z,12.63
2022-08-31T21:34:01.122Z,12.33
2022-08-31T21:36:29.769Z,13.10
2022-08-31T21:38:59.628Z,12.83
2022-08-31T21:41:28.707Z,9.80
2022-08-31T21:43:56.878Z,11.87
2022-08-31T21:46:26.146Z,10.60
2022-08-31T21:48:55.450Z,11.67
2022-08-31T21:51:23.884Z,11.00
2022-08-31T21:53:53.634Z,11.63
2022-08-31T21:56:22.762Z,11.87
2022-08-31T21:58:50.072Z,11.80
2022-08-31T22:01:20.779Z,12.83
2022-08-31T22:03:54.222Z,12.23
2022-08-31T22:06:31.001Z,11.37
2022-08-31T22:09:02.012Z,12.37
2022-08-31T22:11:31.953Z,11.83
2022-08-31T22:14:00.022Z,13.33
2022-08-31T22:16:27.752Z,12.30
2022-08-31T22:19:01.283Z,13.33
2022-08-31T22:21:32.237Z,14.70
2022-08-31T22:24:04.016Z,13.77
2022-08-31T22:26:34.694Z,13.93
2022-08-31T22:29:01.456Z,12.20
2022-08-31T22:31:28.349Z,11.77
2022-08-31T22:33:55.395Z,14.20
2022-08-31T22:36:32.406Z,15.00
2022-08-31T22:39:05.647Z,14.90
2022-08-31T22:41:33.499Z,14.47
2022-08-31T22:44:00.557Z,13.23
2022-08-31T22:46:27.890Z,16.23
2022-08-31T22:48:54.661Z,14.03
2022-08-31T22:51:22.359Z,14.40
2022-08-31T22:53:51.552Z,16.57
2022-08-31T22:56:27.901Z,14.50
2022-08-31T22:58:57.439Z,14.77
2022-08-31T23:01:27.393Z,16.17
2022-08-31T23:03:56.060Z,10.80
2022-08-31T23:06:24.863Z,14.67
2022-08-31T23:08:53.369Z,16.30
2022-08-31T23:11:22.116Z,16.97
2022-08-31T23:13:57.240Z,16.73
2022-08-31T23:16:27.515Z,18.10
2022-08-31T23:18:57.666Z,15.57
2022-08-31T23:21:26.081Z,17.30
2022-08-31T23:23:53.665Z,14.77
2022-08-31T23:26:21.244Z,18.50
2022-08-31T23:28:47.959Z,17.00
2022-08-31T23:31:14.838Z,18.17
2022-08-31T23:33:47.107Z,16.07
2022-08-31T23:36:13.964Z,17.33
2022-08-31T23:38:42.740Z,15.80
2022-08-31T23:41:13.672Z,17.90
2022-08-31T23:43:40.631Z,18.47
2022-08-31T23:46:07.319Z,17.93
2022-08-31T23:48:34.005Z,17.90
2022-08-31T23:51:01.729Z,17.60
2022-08-31T23:53:28.409Z,16.27
2022-08-31T23:55:55.108Z,17.47
2022-08-31T23:58:25.794Z,18.57
